sensor_id;sensor_type;location;lat;lon;timestamp;P1;durP1;ratioP1;P2;durP2;ratioP2
14817;SDS011;7500;57.698;11.986;2023-04-16T00:00:48;5.83;;;3.80;;
14817;SDS011;7500;57.698;11.986;2023-04-16T00:03:14;6.80;;;4.03;;
14817;SDS011;7500;57.698;11.986;2023-04-16T00:05:41;5.37;;;4.13;;
14817;SDS011;7500;57.698;11.986;2023-04-16T00:08:08;4.43;;;3.73;;
14817;SDS011;7500;57.698;11.986;2023-04-16T00:10:36;6.30;;;3.93;;
14817;SDS011;7500;57.698;11.986;2023-04-16T00:13:02;6.53;;;4.03;;
14817;SDS011;7500;57.698;11.986;2023-04-16T00:15:29;4.40;;;3.97;;
14817;SDS011;7500;57.698;11.986;2023-04-16T00:17:55;5.97;;;4.23;;
14817;SDS011;7500;57.698;11.986;2023-04-16T00:20:22;4.33;;;3.87;;
14817;SDS011;7500;57.698;11.986;2023-04-16T00:22:49;5.37;;;4.13;;
14817;SDS011;7500;57.698;11.986;2023-04-16T00:25:16;5.13;;;4.10;;
14817;SDS011;7500;57.698;11.986;2023-04-16T00:27:44;5.10;;;4.07;;
14817;SDS011;7500;57.698;11.986;2023-04-16T00:30:10;6.40;;;3.80;;
14817;SDS011;7500;57.698;11.986;2023-04-16T00:32:37;6.13;;;4.13;;
14817;SDS011;7500;57.698;11.986;2023-04-16T00:35:04;6.27;;;4.23;;
14817;SDS011;7500;57.698;11.986;2023-04-16T00:37:31;6.97;;;4.27;;
14817;SDS011;7500;57.698;11.986;2023-04-16T00:39:57;5.20;;;4.00;;
14817;SDS011;7500;57.698;11.986;2023-04-16T00:42:24;6.17;;;4.07;;
14817;SDS011;7500;57.698;11.986;2023-04-16T00:44:52;6.07;;;4.27;;
14817;SDS011;7500;57.698;11.986;2023-04-16T00:47:19;5.57;;;3.77;;
14817;SDS011;7500;57.698;11.986;2023-04-16T00:49:46;6.00;;;4.30;;
14817;SDS011;7500;57.698;11.986;2023-04-16T00:52:12;6.33;;;4.30;;
14817;SDS011;7500;57.698;11.986;2023-04-16T00:54:39;5.23;;;4.20;;
14817;SDS011;7500;57.698;11.986;2023-04-16T00:57:06;4.90;;;4.40;;
14817;SDS011;7500;57.698;11.986;2023-04-16T00:59:32;6.70;;;4.60;;
14817;SDS011;7500;57.698;11.986;2023-04-16T01:02:00;5.70;;;4.20;;
14817;SDS011;7500;57.698;11.986;2023-04-16T01:04:27;5.57;;;4.50;;
14817;SDS011;7500;57.698;11.986;2023-04-16T01:06:54;7.00;;;4.20;;
14817;SDS011;7500;57.698;11.986;2023-04-16T01:09:21;5.53;;;4.10;;
14817;SDS011;7500;57.698;11.986;2023-04-16T01:11:47;5.67;;;4.10;;
14817;SDS011;7500;57.698;11.986;2023-04-16T01:14:14;4.83;;;3.90;;
14817;SDS011;7500;57.698;11.986;2023-04-16T01:16:41;4.90;;;4.40;;
14817;SDS011;7500;57.698;11.986;2023-04-16T01:19:09;5.80;;;4.20;;
14817;SDS011;7500;57.698;11.986;2023-04-16T01:21:37;5.47;;;4.00;;
14817;SDS011;7500;57.698;11.986;2023-04-16T01:24:03;5.87;;;4.53;;
14817;SDS011;7500;57.698;11.986;2023-04-16T01:26:30;4.93;;;3.87;;
14817;SDS011;7500;57.698;11.986;2023-04-16T01:28:57;6.73;;;4.23;;
14817;SDS011;7500;57.698;11.986;2023-04-16T01:31:24;6.37;;;4.47;;
14817;SDS011;7500;57.698;11.986;2023-04-16T01:33:50;6.53;;;4.20;;
14817;SDS011;7500;57.698;11.986;2023-04-16T01:36:17;5.70;;;4.23;;
14817;SDS011;7500;57.698;11.986;2023-04-16T01:38:45;8.17;;;4.43;;
14817;SDS011;7500;57.698;11.986;2023-04-16T01:41:11;4.27;;;3.77;;
14817;SDS011;7500;57.698;11.986;2023-04-16T01:43:38;4.67;;;3.93;;
14817;SDS011;7500;57.698;11.986;2023-04-16T01:46:13;4.77;;;4.13;;
14817;SDS011;7500;57.698;11.986;2023-04-16T01:48:40;4.47;;;3.60;;
14817;SDS011;7500;57.698;11.986;2023-04-16T01:51:07;5.13;;;4.07;;
14817;SDS011;7500;57.698;11.986;2023-04-16T01:53:34;5.07;;;4.13;;
14817;SDS011;7500;57.698;11.986;2023-04-16T01:56:02;5.97;;;4.27;;
14817;SDS011;7500;57.698;11.986;2023-04-16T01:58:28;5.70;;;4.23;;
14817;SDS011;7500;57.698;11.986;2023-04-16T02:00:55;5.20;;;4.53;;
14817;SDS011;7500;57.698;11.986;2023-04-16T02:03:22;7.90;;;4.47;;
14817;SDS011;7500;57.698;11.986;2023-04-16T02:05:49;10.00;;;4.20;;
14817;SDS011;7500;57.698;11.986;2023-04-16T02:08:16;7.83;;;4.07;;
14817;SDS011;7500;57.698;11.986;2023-04-16T02:10:44;5.57;;;4.30;;
14817;SDS011;7500;57.698;11.986;2023-04-16T02:13:12;4.80;;;4.20;;
14817;SDS011;7500;57.698;11.986;2023-04-16T02:15:38;5.43;;;4.00;;
14817;SDS011;7500;57.698;11.986;2023-04-16T02:18:05;5.90;;;3.90;;
14817;SDS011;7500;57.698;11.986;2023-04-16T02:20:32;7.40;;;4.80;;
14817;SDS011;7500;57.698;11.986;2023-04-16T02:22:58;6.97;;;4.20;;
14817;SDS011;7500;57.698;11.986;2023-04-16T02:25:25;4.63;;;4.13;;
14817;SDS011;7500;57.698;11.986;2023-04-16T02:27:51;7.83;;;4.63;;
14817;SDS011;7500;57.698;11.986;2023-04-16T02:30:20;5.80;;;4.20;;
14817;SDS011;7500;57.698;11.986;2023-04-16T02:32:46;5.37;;;3.90;;
14817;SDS011;7500;57.698;11.986;2023-04-16T02:35:13;5.07;;;4.20;;
14817;SDS011;7500;57.698;11.986;2023-04-16T02:37:40;5.77;;;4.03;;
14817;SDS011;7500;57.698;11.986;2023-04-16T02:40:07;6.03;;;3.90;;
14817;SDS011;7500;57.698;11.986;2023-04-16T02:42:34;5.60;;;4.10;;
14817;SDS011;7500;57.698;11.986;2023-04-16T02:45:00;5.13;;;4.17;;
14817;SDS011;7500;57.698;11.986;2023-04-16T02:47:28;6.20;;;4.40;;
14817;SDS011;7500;57.698;11.986;2023-04-16T02:49:55;5.63;;;4.30;;
14817;SDS011;7500;57.698;11.986;2023-04-16T02:52:22;5.50;;;3.83;;
14817;SDS011;7500;57.698;11.986;2023-04-16T02:54:48;5.63;;;3.90;;
14817;SDS011;7500;57.698;11.986;2023-04-16T02:57:15;4.80;;;3.53;;
14817;SDS011;7500;57.698;11.986;2023-04-16T02:59:41;4.83;;;4.00;;
14817;SDS011;7500;57.698;11.986;2023-04-16T03:02:08;4.70;;;3.97;;
14817;SDS011;7500;57.698;11.986;2023-04-16T03:04:36;4.30;;;3.90;;
14817;SDS011;7500;57.698;11.986;2023-04-16T03:07:02;4.10;;;3.70;;
14817;SDS011;7500;57.698;11.986;2023-04-16T03:09:29;7.10;;;4.03;;
14817;SDS011;7500;57.698;11.986;2023-04-16T03:11:56;8.10;;;3.60;;
14817;SDS011;7500;57.698;11.986;2023-04-16T03:14:22;4.67;;;3.70;;
14817;SDS011;7500;57.698;11.986;2023-04-16T03:16:49;7.00;;;3.90;;
14817;SDS011;7500;57.698;11.986;2023-04-16T03:19:16;4.97;;;3.63;;
14817;SDS011;7500;57.698;11.986;2023-04-16T03:21:45;7.03;;;3.70;;
14817;SDS011;7500;57.698;11.986;2023-04-16T03:24:11;4.07;;;3.67;;
14817;SDS011;7500;57.698;11.986;2023-04-16T03:26:38;5.17;;;4.10;;
14817;SDS011;7500;57.698;11.986;2023-04-16T03:29:05;5.27;;;4.03;;
14817;SDS011;7500;57.698;11.986;2023-04-16T03:31:31;7.10;;;4.00;;
14817;SDS011;7500;57.698;11.986;2023-04-16T03:33:58;5.53;;;4.07;;
14817;SDS011;7500;57.698;11.986;2023-04-16T03:36:24;5.13;;;3.77;;
14817;SDS011;7500;57.698;11.986;2023-04-16T03:38:52;5.20;;;4.20;;
14817;SDS011;7500;57.698;11.986;2023-04-16T03:41:19;5.73;;;4.23;;
14817;SDS011;7500;57.698;11.986;2023-04-16T03:43:45;6.00;;;3.90;;
14817;SDS011;7500;57.698;11.986;2023-04-16T03:46:12;6.90;;;4.00;;
14817;SDS011;7500;57.698;11.986;2023-04-16T03:48:38;4.03;;;3.63;;
14817;SDS011;7500;57.698;11.986;2023-04-16T03:51:05;4.87;;;3.80;;
14817;SDS011;7500;57.698;11.986;2023-04-16T03:53:31;4.53;;;3.60;;
14817;SDS011;7500;57.698;11.986;2023-04-16T03:55:59;7.70;;;4.00;;
14817;SDS011;7500;57.698;11.986;2023-04-16T03:58:26;6.23;;;3.93;;
14817;SDS011;7500;57.698;11.986;2023-04-16T04:00:52;3.90;;;3.50;;
14817;SDS011;7500;57.698;11.986;2023-04-16T04:03:19;3.90;;;3.37;;
14817;SDS011;7500;57.698;11.986;2023-04-16T04:05:46;6.37;;;4.10;;
14817;SDS011;7500;57.698;11.986;2023-04-16T04:08:12;4.33;;;3.90;;
14817;SDS011;7500;57.698;11.986;2023-04-16T04:10:39;4.77;;;3.30;;
14817;SDS011;7500;57.698;11.986;2023-04-16T04:13:07;4.83;;;4.10;;
14817;SDS011;7500;57.698;11.986;2023-04-16T04:15:33;5.53;;;3.57;;
14817;SDS011;7500;57.698;11.986;2023-04-16T04:18:00;5.37;;;4.07;;
14817;SDS011;7500;57.698;11.986;2023-04-16T04:20:26;3.87;;;3.47;;
14817;SDS011;7500;57.698;11.986;2023-04-16T04:22:53;4.80;;;3.77;;
14817;SDS011;7500;57.698;11.986;2023-04-16T04:25:19;5.27;;;3.80;;
14817;SDS011;7500;57.698;11.986;2023-04-16T04:27:46;4.17;;;3.77;;
14817;SDS011;7500;57.698;11.986;2023-04-16T04:30:17;5.60;;;3.50;;
14817;SDS011;7500;57.698;11.986;2023-04-16T04:32:44;4.10;;;3.13;;
14817;SDS011;7500;57.698;11.986;2023-04-16T04:35:10;4.10;;;3.70;;
14817;SDS011;7500;57.698;11.986;2023-04-16T04:37:37;4.43;;;3.47;;
14817;SDS011;7500;57.698;11.986;2023-04-16T04:40:04;5.63;;;3.50;;
14817;SDS011;7500;57.698;11.986;2023-04-16T04:42:30;4.23;;;3.30;;
14817;SDS011;7500;57.698;11.986;2023-04-16T04:44:57;4.53;;;3.57;;
14817;SDS011;7500;57.698;11.986;2023-04-16T04:47:25;4.80;;;3.67;;
14817;SDS011;7500;57.698;11.986;2023-04-16T04:49:51;7.23;;;3.83;;
14817;SDS011;7500;57.698;11.986;2023-04-16T04:52:18;4.60;;;3.63;;
14817;SDS011;7500;57.698;11.986;2023-04-16T04:54:45;5.30;;;3.47;;
14817;SDS011;7500;57.698;11.986;2023-04-16T04:57:11;5.53;;;3.87;;
14817;SDS011;7500;57.698;11.986;2023-04-16T04:59:38;6.20;;;3.70;;
14817;SDS011;7500;57.698;11.986;2023-04-16T05:02:04;4.20;;;3.30;;
14817;SDS011;7500;57.698;11.986;2023-04-16T05:04:32;4.67;;;3.47;;
14817;SDS011;7500;57.698;11.986;2023-04-16T05:06:59;5.33;;;3.40;;
14817;SDS011;7500;57.698;11.986;2023-04-16T05:09:25;4.33;;;3.43;;
14817;SDS011;7500;57.698;11.986;2023-04-16T05:11:52;7.10;;;3.73;;
14817;SDS011;7500;57.698;11.986;2023-04-16T05:14:19;4.93;;;3.80;;
14817;SDS011;7500;57.698;11.986;2023-04-16T05:16:45;4.13;;;3.10;;
14817;SDS011;7500;57.698;11.986;2023-04-16T05:19:12;6.83;;;3.43;;
14817;SDS011;7500;57.698;11.986;2023-04-16T05:21:40;5.83;;;3.40;;
14817;SDS011;7500;57.698;11.986;2023-04-16T05:24:06;5.87;;;3.83;;
14817;SDS011;7500;57.698;11.986;2023-04-16T05:26:33;4.63;;;3.00;;
14817;SDS011;7500;57.698;11.986;2023-04-16T05:29:00;7.27;;;3.20;;
14817;SDS011;7500;57.698;11.986;2023-04-16T05:31:26;5.33;;;3.30;;
14817;SDS011;7500;57.698;11.986;2023-04-16T05:33:53;4.97;;;3.33;;
14817;SDS011;7500;57.698;11.986;2023-04-16T05:36:19;5.57;;;3.07;;
14817;SDS011;7500;57.698;11.986;2023-04-16T05:38:48;4.97;;;3.60;;
14817;SDS011;7500;57.698;11.986;2023-04-16T05:41:14;4.03;;;2.80;;
14817;SDS011;7500;57.698;11.986;2023-04-16T05:43:41;6.10;;;3.33;;
14817;SDS011;7500;57.698;11.986;2023-04-16T05:46:07;7.80;;;3.30;;
14817;SDS011;7500;57.698;11.986;2023-04-16T05:48:34;4.77;;;3.30;;
14817;SDS011;7500;57.698;11.986;2023-04-16T05:51:00;4.07;;;2.87;;
14817;SDS011;7500;57.698;11.986;2023-04-16T05:53:27;3.87;;;2.87;;
14817;SDS011;7500;57.698;11.986;2023-04-16T05:55:55;4.00;;;3.23;;
14817;SDS011;7500;57.698;11.986;2023-04-16T05:58:22;3.83;;;3.30;;
14817;SDS011;7500;57.698;11.986;2023-04-16T06:00:48;6.73;;;3.37;;
14817;SDS011;7500;57.698;11.986;2023-04-16T06:03:15;6.83;;;3.27;;
14817;SDS011;7500;57.698;11.986;2023-04-16T06:05:41;5.30;;;3.10;;
14817;SDS011;7500;57.698;11.986;2023-04-16T06:08:08;3.60;;;3.17;;
14817;SDS011;7500;57.698;11.986;2023-04-16T06:10:35;3.50;;;2.80;;
14817;SDS011;7500;57.698;11.986;2023-04-16T06:13:03;3.57;;;3.03;;
14817;SDS011;7500;57.698;11.986;2023-04-16T06:15:29;6.50;;;4.93;;
14817;SDS011;7500;57.698;11.986;2023-04-16T06:17:56;3.33;;;3.00;;
14817;SDS011;7500;57.698;11.986;2023-04-16T06:20:23;5.17;;;3.23;;
14817;SDS011;7500;57.698;11.986;2023-04-16T06:22:49;3.40;;;3.00;;
14817;SDS011;7500;57.698;11.986;2023-04-16T06:25:16;5.47;;;3.00;;
14817;SDS011;7500;57.698;11.986;2023-04-16T06:27:43;5.13;;;3.10;;
14817;SDS011;7500;57.698;11.986;2023-04-16T06:30:11;4.27;;;3.17;;
14817;SDS011;7500;57.698;11.986;2023-04-16T06:32:38;3.97;;;3.10;;
14817;SDS011;7500;57.698;11.986;2023-04-16T06:35:05;3.93;;;3.23;;
14817;SDS011;7500;57.698;11.986;2023-04-16T06:37:32;10.00;;;4.27;;
14817;SDS011;7500;57.698;11.986;2023-04-16T06:39:58;5.00;;;3.17;;
14817;SDS011;7500;57.698;11.986;2023-04-16T06:42:25;3.87;;;2.97;;
14817;SDS011;7500;57.698;11.986;2023-04-16T06:44:51;5.20;;;3.40;;
14817;SDS011;7500;57.698;11.986;2023-04-16T06:47:19;3.57;;;3.07;;
14817;SDS011;7500;57.698;11.986;2023-04-16T06:49:46;5.33;;;3.63;;
14817;SDS011;7500;57.698;11.986;2023-04-16T06:52:13;3.40;;;3.10;;
14817;SDS011;7500;57.698;11.986;2023-04-16T06:54:39;4.13;;;3.23;;
14817;SDS011;7500;57.698;11.986;2023-04-16T06:57:06;4.63;;;3.50;;
14817;SDS011;7500;57.698;11.986;2023-04-16T06:59:33;4.17;;;2.87;;
14817;SDS011;7500;57.698;11.986;2023-04-16T07:01:59;4.23;;;3.30;;
14817;SDS011;7500;57.698;11.986;2023-04-16T07:04:27;6.57;;;3.60;;
14817;SDS011;7500;57.698;11.986;2023-04-16T07:06:54;7.87;;;3.70;;
14817;SDS011;7500;57.698;11.986;2023-04-16T07:09:20;4.73;;;2.97;;
14817;SDS011;7500;57.698;11.986;2023-04-16T07:11:47;3.77;;;3.23;;
14817;SDS011;7500;57.698;11.986;2023-04-16T07:14:13;5.40;;;3.37;;
14817;SDS011;7500;57.698;11.986;2023-04-16T07:16:40;5.80;;;3.27;;
14817;SDS011;7500;57.698;11.986;2023-04-16T07:19:07;5.53;;;3.40;;
14817;SDS011;7500;57.698;11.986;2023-04-16T07:21:34;4.20;;;3.13;;
14817;SDS011;7500;57.698;11.986;2023-04-16T07:24:01;8.03;;;3.63;;
14817;SDS011;7500;57.698;11.986;2023-04-16T07:26:28;3.93;;;3.00;;
14817;SDS011;7500;57.698;11.986;2023-04-16T07:28:54;3.97;;;3.27;;
14817;SDS011;7500;57.698;11.986;2023-04-16T07:31:21;5.17;;;3.40;;
14817;SDS011;7500;57.698;11.986;2023-04-16T07:33:47;5.77;;;3.17;;
14817;SDS011;7500;57.698;11.986;2023-04-16T07:36:14;3.60;;;3.03;;
14817;SDS011;7500;57.698;11.986;2023-04-16T07:38:42;8.87;;;3.70;;
14817;SDS011;7500;57.698;11.986;2023-04-16T07:41:09;4.80;;;3.30;;
14817;SDS011;7500;57.698;11.986;2023-04-16T07:43:35;6.93;;;3.60;;
14817;SDS011;7500;57.698;11.986;2023-04-16T07:46:02;6.20;;;3.90;;
14817;SDS011;7500;57.698;11.986;2023-04-16T07:48:29;3.73;;;3.37;;
14817;SDS011;7500;57.698;11.986;2023-04-16T07:50:55;5.47;;;3.53;;
14817;SDS011;7500;57.698;11.986;2023-04-16T07:53:22;4.03;;;3.40;;
14817;SDS011;7500;57.698;11.986;2023-04-16T07:55:50;4.37;;;3.30;;
14817;SDS011;7500;57.698;11.986;2023-04-16T07:58:17;4.93;;;3.40;;
14817;SDS011;7500;57.698;11.986;2023-04-16T08:00:43;4.10;;;3.37;;
14817;SDS011;7500;57.698;11.986;2023-04-16T08:03:11;4.67;;;3.30;;
14817;SDS011;7500;57.698;11.986;2023-04-16T08:05:37;4.27;;;2.90;;
14817;SDS011;7500;57.698;11.986;2023-04-16T08:08:04;6.10;;;3.70;;
14817;SDS011;7500;57.698;11.986;2023-04-16T08:10:30;4.53;;;3.60;;
14817;SDS011;7500;57.698;11.986;2023-04-16T08:13:00;9.27;;;3.40;;
14817;SDS011;7500;57.698;11.986;2023-04-16T08:15:26;3.90;;;3.40;;
14817;SDS011;7500;57.698;11.986;2023-04-16T08:17:53;4.23;;;3.47;;
14817;SDS011;7500;57.698;11.986;2023-04-16T08:20:20;5.90;;;3.63;;
14817;SDS011;7500;57.698;11.986;2023-04-16T08:22:46;4.53;;;3.63;;
14817;SDS011;7500;57.698;11.986;2023-04-16T08:25:13;5.80;;;3.17;;
14817;SDS011;7500;57.698;11.986;2023-04-16T08:27:40;4.07;;;3.40;;
14817;SDS011;7500;57.698;11.986;2023-04-16T08:30:08;4.83;;;3.30;;
14817;SDS011;7500;57.698;11.986;2023-04-16T08:32:35;5.80;;;3.50;;
14817;SDS011;7500;57.698;11.986;2023-04-16T08:35:01;6.10;;;3.53;;
14817;SDS011;7500;57.698;11.986;2023-04-16T08:37:28;5.70;;;3.73;;
14817;SDS011;7500;57.698;11.986;2023-04-16T08:39:54;5.80;;;3.60;;
14817;SDS011;7500;57.698;11.986;2023-04-16T08:42:23;9.83;;;3.90;;
14817;SDS011;7500;57.698;11.986;2023-04-16T08:44:57;13.07;;;4.00;;
14817;SDS011;7500;57.698;11.986;2023-04-16T08:47:29;5.40;;;3.63;;
14817;SDS011;7500;57.698;11.986;2023-04-16T08:49:59;6.40;;;3.87;;
14817;SDS011;7500;57.698;11.986;2023-04-16T08:52:26;5.43;;;3.33;;
14817;SDS011;7500;57.698;11.986;2023-04-16T08:54:55;5.20;;;3.40;;
14817;SDS011;7500;57.698;11.986;2023-04-16T08:57:25;6.03;;;3.20;;
14817;SDS011;7500;57.698;11.986;2023-04-16T08:59:52;7.03;;;3.60;;
14817;SDS011;7500;57.698;11.986;2023-04-16T09:02:19;6.70;;;3.87;;
14817;SDS011;7500;57.698;11.986;2023-04-16T09:04:48;4.93;;;3.67;;
14817;SDS011;7500;57.698;11.986;2023-04-16T09:07:15;4.87;;;3.40;;
14817;SDS011;7500;57.698;11.986;2023-04-16T09:09:42;5.07;;;3.30;;
14817;SDS011;7500;57.698;11.986;2023-04-16T09:12:09;6.23;;;3.80;;
14817;SDS011;7500;57.698;11.986;2023-04-16T09:14:35;7.23;;;3.80;;
14817;SDS011;7500;57.698;11.986;2023-04-16T09:17:05;6.37;;;3.63;;
14817;SDS011;7500;57.698;11.986;2023-04-16T09:19:33;9.97;;;3.77;;
14817;SDS011;7500;57.698;11.986;2023-04-16T09:22:01;6.00;;;3.70;;
14817;SDS011;7500;57.698;11.986;2023-04-16T09:24:27;4.73;;;3.70;;
14817;SDS011;7500;57.698;11.986;2023-04-16T09:26:54;6.20;;;3.73;;
14817;SDS011;7500;57.698;11.986;2023-04-16T09:32:09;8.27;;;4.17;;
14817;SDS011;7500;57.698;11.986;2023-04-16T09:34:52;4.30;;;3.53;;
14817;SDS011;7500;57.698;11.986;2023-04-16T09:37:21;4.10;;;3.70;;
14817;SDS011;7500;57.698;11.986;2023-04-16T09:39:51;4.93;;;3.60;;
14817;SDS011;7500;57.698;11.986;2023-04-16T09:42:20;8.57;;;3.70;;
14817;SDS011;7500;57.698;11.986;2023-04-16T09:44:48;6.30;;;3.50;;
14817;SDS011;7500;57.698;11.986;2023-04-16T09:47:14;4.57;;;3.40;;
14817;SDS011;7500;57.698;11.986;2023-04-16T09:49:41;4.53;;;3.90;;
14817;SDS011;7500;57.698;11.986;2023-04-16T09:52:08;4.13;;;3.60;;
14817;SDS011;7500;57.698;11.986;2023-04-16T09:54:39;5.07;;;3.83;;
14817;SDS011;7500;57.698;11.986;2023-04-16T09:57:10;4.97;;;3.60;;
14817;SDS011;7500;57.698;11.986;2023-04-16T09:59:37;5.30;;;3.70;;
14817;SDS011;7500;57.698;11.986;2023-04-16T10:02:04;4.93;;;3.60;;
14817;SDS011;7500;57.698;11.986;2023-04-16T10:04:39;5.40;;;3.57;;
14817;SDS011;7500;57.698;11.986;2023-04-16T10:07:10;5.63;;;3.53;;
14817;SDS011;7500;57.698;11.986;2023-04-16T10:09:38;3.90;;;3.30;;
14817;SDS011;7500;57.698;11.986;2023-04-16T10:12:05;4.63;;;3.37;;
14817;SDS011;7500;57.698;11.986;2023-04-16T10:14:32;3.73;;;3.40;;
14817;SDS011;7500;57.698;11.986;2023-04-16T10:16:59;5.37;;;4.23;;
14817;SDS011;7500;57.698;11.986;2023-04-16T10:19:25;4.67;;;3.63;;
14817;SDS011;7500;57.698;11.986;2023-04-16T10:21:52;8.77;;;3.90;;
14817;SDS011;7500;57.698;11.986;2023-04-16T10:24:20;5.47;;;3.60;;
14817;SDS011;7500;57.698;11.986;2023-04-16T10:26:48;4.37;;;3.43;;
14817;SDS011;7500;57.698;11.986;2023-04-16T10:29:17;5.73;;;3.83;;
14817;SDS011;7500;57.698;11.986;2023-04-16T10:31:44;3.70;;;3.40;;
14817;SDS011;7500;57.698;11.986;2023-04-16T10:34:11;4.13;;;3.40;;
14817;SDS011;7500;57.698;11.986;2023-04-16T10:36:38;5.70;;;3.47;;
14817;SDS011;7500;57.698;11.986;2023-04-16T10:39:08;5.03;;;3.27;;
14817;SDS011;7500;57.698;11.986;2023-04-16T10:41:35;4.03;;;3.60;;
14817;SDS011;7500;57.698;11.986;2023-04-16T10:44:04;4.27;;;3.50;;
14817;SDS011;7500;57.698;11.986;2023-04-16T10:46:35;6.17;;;3.73;;
14817;SDS011;7500;57.698;11.986;2023-04-16T10:49:11;5.27;;;3.87;;
14817;SDS011;7500;57.698;11.986;2023-04-16T10:51:38;5.27;;;3.63;;
14817;SDS011;7500;57.698;11.986;2023-04-16T10:54:17;4.43;;;3.40;;
14817;SDS011;7500;57.698;11.986;2023-04-16T10:56:44;4.13;;;3.57;;
14817;SDS011;7500;57.698;11.986;2023-04-16T10:59:16;3.97;;;3.57;;
14817;SDS011;7500;57.698;11.986;2023-04-16T11:01:43;5.77;;;3.80;;
14817;SDS011;7500;57.698;11.986;2023-04-16T11:04:26;4.20;;;3.40;;
14817;SDS011;7500;57.698;11.986;2023-04-16T11:07:00;6.17;;;3.53;;
14817;SDS011;7500;57.698;11.986;2023-04-16T11:12:12;4.27;;;3.57;;
14817;SDS011;7500;57.698;11.986;2023-04-16T11:14:40;6.67;;;3.70;;
14817;SDS011;7500;57.698;11.986;2023-04-16T11:17:07;5.17;;;3.40;;
14817;SDS011;7500;57.698;11.986;2023-04-16T11:19:34;3.93;;;3.53;;
14817;SDS011;7500;57.698;11.986;2023-04-16T11:22:01;7.70;;;3.30;;
14817;SDS011;7500;57.698;11.986;2023-04-16T11:24:28;5.17;;;3.33;;
14817;SDS011;7500;57.698;11.986;2023-04-16T11:26:55;8.70;;;3.40;;
14817;SDS011;7500;57.698;11.986;2023-04-16T11:29:21;4.47;;;3.37;;
14817;SDS011;7500;57.698;11.986;2023-04-16T11:31:50;3.60;;;3.20;;
14817;SDS011;7500;57.698;11.986;2023-04-16T11:34:17;3.63;;;2.83;;
14817;SDS011;7500;57.698;11.986;2023-04-16T11:36:44;5.80;;;3.27;;
14817;SDS011;7500;57.698;11.986;2023-04-16T11:39:10;4.93;;;3.40;;
14817;SDS011;7500;57.698;11.986;2023-04-16T11:41:41;6.10;;;3.50;;
14817;SDS011;7500;57.698;11.986;2023-04-16T11:44:17;4.17;;;3.30;;
14817;SDS011;7500;57.698;11.986;2023-04-16T11:46:44;3.80;;;3.13;;
14817;SDS011;7500;57.698;11.986;2023-04-16T11:49:12;4.23;;;2.80;;
14817;SDS011;7500;57.698;11.986;2023-04-16T11:51:38;5.43;;;3.30;;
14817;SDS011;7500;57.698;11.986;2023-04-16T11:54:05;3.87;;;3.47;;
14817;SDS011;7500;57.698;11.986;2023-04-16T11:56:33;4.43;;;2.73;;
14817;SDS011;7500;57.698;11.986;2023-04-16T11:59:09;3.40;;;3.10;;
14817;SDS011;7500;57.698;11.986;2023-04-16T12:01:36;3.60;;;2.93;;
14817;SDS011;7500;57.698;11.986;2023-04-16T12:04:03;4.40;;;3.10;;
14817;SDS011;7500;57.698;11.986;2023-04-16T12:06:31;4.47;;;2.80;;
14817;SDS011;7500;57.698;11.986;2023-04-16T12:08:57;3.20;;;2.70;;
14817;SDS011;7500;57.698;11.986;2023-04-16T12:14:06;3.30;;;3.00;;
14817;SDS011;7500;57.698;11.986;2023-04-16T12:16:32;3.57;;;3.03;;
14817;SDS011;7500;57.698;11.986;2023-04-16T12:18:59;5.50;;;3.27;;
14817;SDS011;7500;57.698;11.986;2023-04-16T12:21:39;3.73;;;3.20;;
14817;SDS011;7500;57.698;11.986;2023-04-16T12:24:07;3.93;;;3.10;;
14817;SDS011;7500;57.698;11.986;2023-04-16T12:26:37;3.77;;;2.70;;
14817;SDS011;7500;57.698;11.986;2023-04-16T12:29:13;6.07;;;3.17;;
14817;SDS011;7500;57.698;11.986;2023-04-16T12:31:40;7.10;;;2.80;;
14817;SDS011;7500;57.698;11.986;2023-04-16T12:34:07;4.37;;;2.87;;
14817;SDS011;7500;57.698;11.986;2023-04-16T12:36:34;3.93;;;2.90;;
14817;SDS011;7500;57.698;11.986;2023-04-16T12:39:02;4.93;;;3.13;;
14817;SDS011;7500;57.698;11.986;2023-04-16T12:41:29;5.80;;;3.20;;
14817;SDS011;7500;57.698;11.986;2023-04-16T12:44:02;5.37;;;2.97;;
14817;SDS011;7500;57.698;11.986;2023-04-16T12:46:29;3.20;;;2.90;;
14817;SDS011;7500;57.698;11.986;2023-04-16T12:48:55;4.03;;;2.90;;
14817;SDS011;7500;57.698;11.986;2023-04-16T12:51:22;3.80;;;2.73;;
14817;SDS011;7500;57.698;11.986;2023-04-16T12:53:49;4.73;;;2.67;;
14817;SDS011;7500;57.698;11.986;2023-04-16T12:56:17;5.47;;;2.60;;
14817;SDS011;7500;57.698;11.986;2023-04-16T12:58:43;3.63;;;2.93;;
14817;SDS011;7500;57.698;11.986;2023-04-16T13:01:10;2.80;;;2.60;;
14817;SDS011;7500;57.698;11.986;2023-04-16T13:03:37;4.20;;;2.60;;
14817;SDS011;7500;57.698;11.986;2023-04-16T13:06:05;2.50;;;2.30;;
14817;SDS011;7500;57.698;11.986;2023-04-16T13:08:31;5.63;;;2.53;;
14817;SDS011;7500;57.698;11.986;2023-04-16T13:10:58;3.20;;;2.83;;
14817;SDS011;7500;57.698;11.986;2023-04-16T13:13:26;6.10;;;2.53;;
14817;SDS011;7500;57.698;11.986;2023-04-16T13:15:52;3.07;;;2.57;;
14817;SDS011;7500;57.698;11.986;2023-04-16T13:18:19;6.30;;;2.97;;
14817;SDS011;7500;57.698;11.986;2023-04-16T13:20:45;3.87;;;2.53;;
14817;SDS011;7500;57.698;11.986;2023-04-16T13:23:12;5.17;;;2.50;;
14817;SDS011;7500;57.698;11.986;2023-04-16T13:25:38;4.00;;;2.73;;
14817;SDS011;7500;57.698;11.986;2023-04-16T13:28:05;6.70;;;2.90;;
14817;SDS011;7500;57.698;11.986;2023-04-16T13:30:33;4.13;;;2.70;;
14817;SDS011;7500;57.698;11.986;2023-04-16T13:33:00;5.77;;;2.50;;
14817;SDS011;7500;57.698;11.986;2023-04-16T13:35:26;4.00;;;2.70;;
14817;SDS011;7500;57.698;11.986;2023-04-16T13:37:53;4.60;;;2.60;;
14817;SDS011;7500;57.698;11.986;2023-04-16T13:40:20;3.77;;;2.40;;
14817;SDS011;7500;57.698;11.986;2023-04-16T13:42:46;5.23;;;3.07;;
14817;SDS011;7500;57.698;11.986;2023-04-16T13:45:13;3.00;;;2.00;;
14817;SDS011;7500;57.698;11.986;2023-04-16T13:47:41;6.07;;;2.57;;
14817;SDS011;7500;57.698;11.986;2023-04-16T13:50:08;4.77;;;2.57;;
14817;SDS011;7500;57.698;11.986;2023-04-16T13:52:35;4.00;;;2.50;;
14817;SDS011;7500;57.698;11.986;2023-04-16T13:55:02;3.57;;;2.47;;
14817;SDS011;7500;57.698;11.986;2023-04-16T13:57:29;3.83;;;2.20;;
14817;SDS011;7500;57.698;11.986;2023-04-16T13:59:56;4.37;;;2.40;;
14817;SDS011;7500;57.698;11.986;2023-04-16T14:02:22;3.97;;;2.10;;
14817;SDS011;7500;57.698;11.986;2023-04-16T14:04:51;6.03;;;2.50;;
14817;SDS011;7500;57.698;11.986;2023-04-16T14:07:18;4.17;;;2.33;;
14817;SDS011;7500;57.698;11.986;2023-04-16T14:09:46;4.37;;;2.67;;
14817;SDS011;7500;57.698;11.986;2023-04-16T14:12:13;3.07;;;2.40;;
14817;SDS011;7500;57.698;11.986;2023-04-16T14:14:40;3.30;;;2.30;;
14817;SDS011;7500;57.698;11.986;2023-04-16T14:17:07;4.67;;;2.30;;
14817;SDS011;7500;57.698;11.986;2023-04-16T14:19:33;4.40;;;2.40;;
14817;SDS011;7500;57.698;11.986;2023-04-16T14:22:01;4.00;;;2.37;;
14817;SDS011;7500;57.698;11.986;2023-04-16T14:24:28;2.77;;;2.20;;
14817;SDS011;7500;57.698;11.986;2023-04-16T14:26:54;3.37;;;2.57;;
14817;SDS011;7500;57.698;11.986;2023-04-16T14:29:21;3.20;;;2.30;;
14817;SDS011;7500;57.698;11.986;2023-04-16T14:31:47;5.97;;;2.60;;
14817;SDS011;7500;57.698;11.986;2023-04-16T14:34:14;5.27;;;2.47;;
14817;SDS011;7500;57.698;11.986;2023-04-16T14:36:40;2.83;;;2.60;;
14817;SDS011;7500;57.698;11.986;2023-04-16T14:39:09;4.70;;;2.53;;
14817;SDS011;7500;57.698;11.986;2023-04-16T14:41:35;3.57;;;2.60;;
14817;SDS011;7500;57.698;11.986;2023-04-16T14:44:02;4.03;;;2.43;;
14817;SDS011;7500;57.698;11.986;2023-04-16T14:46:30;2.47;;;2.20;;
14817;SDS011;7500;57.698;11.986;2023-04-16T14:48:57;6.70;;;2.87;;
14817;SDS011;7500;57.698;11.986;2023-04-16T14:51:24;3.73;;;2.40;;
14817;SDS011;7500;57.698;11.986;2023-04-16T14:53:51;3.47;;;2.40;;
14817;SDS011;7500;57.698;11.986;2023-04-16T14:56:19;2.30;;;2.10;;